Huajialing, China
Current Conditions -  °F | °C
As of 9:00 AM on Tuesday 23 Dec 2014 (Local Time) from ZLLL Reporting Station
Haze Haze  
Wind Chill:   Ceiling: Unl
Heat Index: 12°   Visibility: 3mi
Dew Point:   Wind: 4mph
Humidity: 67%   Direction: 350°N
Pressure: 30.09"   Gusts: NA
Location:  35.38°N, 105°E
Report Text: ZLLL 230100Z 35002MPS 5000 HZ NSC M11/M16 Q1019 NOSIG
Loading
Personal Weather Stations






























Interactive Weather Map New forecast layout! Learn more

10-Day Weather Forecast

Advertisements
Track Severe Weather on mobile